sensor_id;sensor_type;location;lat;lon;timestamp;pressure;altitude;pressure_sealevel;temperature;humidity
47742;BME280;33504;52.066;6.096;2023-05-03T00:02:24;102887.17;;;8.69;38.05
47742;BME280;33504;52.066;6.096;2023-05-03T00:04:51;102885.24;;;8.42;38.09
47742;BME280;33504;52.066;6.096;2023-05-03T00:07:18;102886.63;;;8.36;38.16
47742;BME280;33504;52.066;6.096;2023-05-03T00:09:45;102888.58;;;8.56;38.07
47742;BME280;33504;52.066;6.096;2023-05-03T00:12:12;102888.70;;;8.49;38.26
47742;BME280;33504;52.066;6.096;2023-05-03T00:14:39;102887.26;;;8.49;38.18
47742;BME280;33504;52.066;6.096;2023-05-03T00:17:06;102886.95;;;8.23;38.15
47742;BME280;33504;52.066;6.096;2023-05-03T00:19:33;102887.74;;;8.20;38.28
47742;BME280;33504;52.066;6.096;2023-05-03T00:22:00;102890.19;;;8.37;38.26
47742;BME280;33504;52.066;6.096;2023-05-03T00:24:27;102894.18;;;8.12;38.30
47742;BME280;33504;52.066;6.096;2023-05-03T00:26:54;102890.80;;;8.08;38.29
47742;BME280;33504;52.066;6.096;2023-05-03T00:29:21;102889.16;;;8.05;38.30
47742;BME280;33504;52.066;6.096;2023-05-03T00:31:48;102886.00;;;8.49;38.33
47742;BME280;33504;52.066;6.096;2023-05-03T00:34:15;102887.36;;;8.43;38.45
47742;BME280;33504;52.066;6.096;2023-05-03T00:36:42;102886.77;;;8.16;38.52
47742;BME280;33504;52.066;6.096;2023-05-03T00:39:09;102889.38;;;8.39;38.52
47742;BME280;33504;52.066;6.096;2023-05-03T00:41:36;102889.15;;;8.35;38.63
47742;BME280;33504;52.066;6.096;2023-05-03T00:44:03;102887.61;;;8.32;38.59
47742;BME280;33504;52.066;6.096;2023-05-03T00:46:30;102886.80;;;8.31;38.63
47742;BME280;33504;52.066;6.096;2023-05-03T00:48:57;102886.08;;;8.25;38.70
47742;BME280;33504;52.066;6.096;2023-05-03T00:51:25;102887.17;;;7.71;38.73
47742;BME280;33504;52.066;6.096;2023-05-03T00:53:52;102888.48;;;8.11;38.74
47742;BME280;33504;52.066;6.096;2023-05-03T00:56:19;102892.32;;;8.05;38.81
47742;BME280;33504;52.066;6.096;2023-05-03T00:58:46;102893.44;;;8.02;38.86
47742;BME280;33504;52.066;6.096;2023-05-03T01:01:13;102893.47;;;8.18;38.96
47742;BME280;33504;52.066;6.096;2023-05-03T01:03:41;102887.44;;;7.91;39.13
47742;BME280;33504;52.066;6.096;2023-05-03T01:06:13;102885.14;;;7.61;39.20
47742;BME280;33504;52.066;6.096;2023-05-03T01:08:49;102883.90;;;7.84;39.09
47742;BME280;33504;52.066;6.096;2023-05-03T01:11:22;102882.95;;;7.79;39.17
47742;BME280;33504;52.066;6.096;2023-05-03T01:13:55;102876.99;;;7.74;39.11
47742;BME280;33504;52.066;6.096;2023-05-03T01:16:28;102878.10;;;7.45;39.20
47742;BME280;33504;52.066;6.096;2023-05-03T01:18:58;102879.94;;;7.66;39.32
47742;BME280;33504;52.066;6.096;2023-05-03T01:21:27;102882.36;;;7.63;39.24
47742;BME280;33504;52.066;6.096;2023-05-03T01:24:13;102887.16;;;7.56;39.31
47742;BME280;33504;52.066;6.096;2023-05-03T01:26:44;102886.21;;;7.71;39.38
47742;BME280;33504;52.066;6.096;2023-05-03T01:29:11;102884.79;;;7.67;39.44
47742;BME280;33504;52.066;6.096;2023-05-03T01:31:43;102890.45;;;7.41;39.54
47742;BME280;33504;52.066;6.096;2023-05-03T01:34:21;102893.41;;;7.34;39.59
47742;BME280;33504;52.066;6.096;2023-05-03T01:36:49;102893.25;;;7.29;39.58
47742;BME280;33504;52.066;6.096;2023-05-03T01:39:22;102893.75;;;7.29;39.59
47742;BME280;33504;52.066;6.096;2023-05-03T01:41:50;102896.11;;;7.24;39.83
47742;BME280;33504;52.066;6.096;2023-05-03T01:44:18;102897.70;;;7.22;39.73
47742;BME280;33504;52.066;6.096;2023-05-03T01:46:46;102897.38;;;7.41;39.75
47742;BME280;33504;52.066;6.096;2023-05-03T01:49:14;102898.69;;;7.39;39.76
47742;BME280;33504;52.066;6.096;2023-05-03T01:51:41;102899.45;;;7.34;39.92
47742;BME280;33504;52.066;6.096;2023-05-03T01:54:08;102897.41;;;7.34;39.94
47742;BME280;33504;52.066;6.096;2023-05-03T01:56:35;102897.75;;;7.08;40.04
47742;BME280;33504;52.066;6.096;2023-05-03T01:59:03;102894.83;;;7.31;39.98
47742;BME280;33504;52.066;6.096;2023-05-03T02:01:30;102893.82;;;7.07;40.11
47742;BME280;33504;52.066;6.096;2023-05-03T02:03:57;102896.09;;;7.06;39.97
47742;BME280;33504;52.066;6.096;2023-05-03T02:06:24;102895.04;;;7.29;40.06
47742;BME280;33504;52.066;6.096;2023-05-03T02:08:51;102896.41;;;7.26;40.06
47742;BME280;33504;52.066;6.096;2023-05-03T02:11:18;102895.46;;;7.46;40.02
47742;BME280;33504;52.066;6.096;2023-05-03T02:13:46;102897.25;;;7.20;40.07
47742;BME280;33504;52.066;6.096;2023-05-03T02:16:14;102899.01;;;6.93;40.04
47742;BME280;33504;52.066;6.096;2023-05-03T02:18:41;102899.04;;;6.91;40.00
47742;BME280;33504;52.066;6.096;2023-05-03T02:21:08;102897.11;;;7.33;39.91
47742;BME280;33504;52.066;6.096;2023-05-03T02:23:36;102893.62;;;6.86;40.04
47742;BME280;33504;52.066;6.096;2023-05-03T02:26:03;102891.57;;;6.82;40.03
47742;BME280;33504;52.066;6.096;2023-05-03T02:28:30;102891.07;;;6.98;40.14
47742;BME280;33504;52.066;6.096;2023-05-03T02:30:57;102890.26;;;6.92;40.13
47742;BME280;33504;52.066;6.096;2023-05-03T02:33:24;102887.94;;;6.89;40.24
47742;BME280;33504;52.066;6.096;2023-05-03T02:35:51;102886.34;;;6.83;40.25
47742;BME280;33504;52.066;6.096;2023-05-03T02:38:18;102882.66;;;7.00;40.45
47742;BME280;33504;52.066;6.096;2023-05-03T02:40:45;102882.84;;;6.96;40.42
47742;BME280;33504;52.066;6.096;2023-05-03T02:43:12;102888.85;;;6.93;40.46
47742;BME280;33504;52.066;6.096;2023-05-03T02:45:39;102884.42;;;6.69;40.49
47742;BME280;33504;52.066;6.096;2023-05-03T02:48:06;102881.83;;;6.63;40.67
47742;BME280;33504;52.066;6.096;2023-05-03T02:50:33;102881.44;;;6.86;40.60
47742;BME280;33504;52.066;6.096;2023-05-03T02:53:00;102878.69;;;6.82;40.69
47742;BME280;33504;52.066;6.096;2023-05-03T02:55:27;102878.07;;;6.77;40.65
47742;BME280;33504;52.066;6.096;2023-05-03T02:57:53;102876.69;;;6.49;40.46
47742;BME280;33504;52.066;6.096;2023-05-03T03:00:20;102875.48;;;6.66;40.45
47742;BME280;33504;52.066;6.096;2023-05-03T03:02:47;102873.02;;;6.36;40.51
47742;BME280;33504;52.066;6.096;2023-05-03T03:05:15;102867.47;;;6.52;40.44
47742;BME280;33504;52.066;6.096;2023-05-03T03:07:41;102864.22;;;6.43;40.87
47742;BME280;33504;52.066;6.096;2023-05-03T03:10:09;102860.73;;;6.44;40.65
47742;BME280;33504;52.066;6.096;2023-05-03T03:12:37;102858.15;;;6.41;40.83
47742;BME280;33504;52.066;6.096;2023-05-03T03:15:04;102854.09;;;6.40;40.92
47742;BME280;33504;52.066;6.096;2023-05-03T03:17:32;102850.49;;;6.38;40.94
47742;BME280;33504;52.066;6.096;2023-05-03T03:19:59;102845.75;;;6.32;41.23
47742;BME280;33504;52.066;6.096;2023-05-03T03:22:26;102842.23;;;6.31;41.19
47742;BME280;33504;52.066;6.096;2023-05-03T03:24:53;102842.80;;;6.30;41.23
47742;BME280;33504;52.066;6.096;2023-05-03T03:27:20;102838.97;;;6.23;41.12
47742;BME280;33504;52.066;6.096;2023-05-03T03:29:47;102834.91;;;6.49;41.20
47742;BME280;33504;52.066;6.096;2023-05-03T03:32:14;102837.71;;;6.46;41.11
47742;BME280;33504;52.066;6.096;2023-05-03T03:34:41;102838.89;;;6.15;41.13
47742;BME280;33504;52.066;6.096;2023-05-03T03:37:08;102844.54;;;6.14;41.24
47742;BME280;33504;52.066;6.096;2023-05-03T03:39:35;102847.40;;;6.11;41.18
47742;BME280;33504;52.066;6.096;2023-05-03T03:42:02;102846.20;;;6.34;41.27
47742;BME280;33504;52.066;6.096;2023-05-03T03:44:29;102847.97;;;6.04;41.27
47742;BME280;33504;52.066;6.096;2023-05-03T03:46:56;102854.80;;;6.01;41.40
47742;BME280;33504;52.066;6.096;2023-05-03T03:49:23;102858.81;;;6.19;41.38
47742;BME280;33504;52.066;6.096;2023-05-03T03:51:50;102854.22;;;6.14;41.24
47742;BME280;33504;52.066;6.096;2023-05-03T03:54:17;102858.13;;;6.11;41.39
47742;BME280;33504;52.066;6.096;2023-05-03T03:56:44;102864.35;;;6.04;41.45
47742;BME280;33504;52.066;6.096;2023-05-03T03:59:11;102866.17;;;5.77;41.45
47742;BME280;33504;52.066;6.096;2023-05-03T04:01:38;102861.32;;;5.77;41.50
47742;BME280;33504;52.066;6.096;2023-05-03T04:04:05;102862.21;;;5.74;41.53
47742;BME280;33504;52.066;6.096;2023-05-03T04:06:31;102863.33;;;6.22;41.38
47742;BME280;33504;52.066;6.096;2023-05-03T04:08:58;102863.68;;;5.95;41.13
47742;BME280;33504;52.066;6.096;2023-05-03T04:11:25;102866.47;;;5.63;41.07
47742;BME280;33504;52.066;6.096;2023-05-03T04:13:52;102866.22;;;5.62;40.98
47742;BME280;33504;52.066;6.096;2023-05-03T04:16:19;102874.07;;;5.86;40.61
47742;BME280;33504;52.066;6.096;2023-05-03T04:18:46;102875.68;;;5.79;40.74
47742;BME280;33504;52.066;6.096;2023-05-03T04:21:13;102873.28;;;5.48;40.78
47742;BME280;33504;52.066;6.096;2023-05-03T04:23:40;102871.16;;;5.91;41.00
47742;BME280;33504;52.066;6.096;2023-05-03T04:26:07;102871.56;;;5.72;40.93
47742;BME280;33504;52.066;6.096;2023-05-03T04:28:34;102875.81;;;5.93;40.96
47742;BME280;33504;52.066;6.096;2023-05-03T04:31:01;102882.83;;;5.91;40.96
47742;BME280;33504;52.066;6.096;2023-05-03T04:33:28;102885.40;;;5.86;40.96
47742;BME280;33504;52.066;6.096;2023-05-03T04:35:55;102891.31;;;5.84;41.31
47742;BME280;33504;52.066;6.096;2023-05-03T04:38:22;102893.77;;;5.63;41.46
47742;BME280;33504;52.066;6.096;2023-05-03T04:40:49;102897.23;;;5.82;41.83
47742;BME280;33504;52.066;6.096;2023-05-03T04:43:16;102900.40;;;5.68;41.74
47742;BME280;33504;52.066;6.096;2023-05-03T04:45:43;102901.88;;;5.72;41.70
47742;BME280;33504;52.066;6.096;2023-05-03T04:48:10;102905.39;;;5.50;41.79
47742;BME280;33504;52.066;6.096;2023-05-03T04:50:37;102906.62;;;5.79;41.91
47742;BME280;33504;52.066;6.096;2023-05-03T04:53:04;102907.85;;;5.85;41.85
47742;BME280;33504;52.066;6.096;2023-05-03T04:55:31;102912.95;;;5.89;41.92
47742;BME280;33504;52.066;6.096;2023-05-03T04:57:58;102915.17;;;5.65;41.83
47742;BME280;33504;52.066;6.096;2023-05-03T05:00:25;102917.34;;;5.70;41.89
47742;BME280;33504;52.066;6.096;2023-05-03T05:02:52;102923.85;;;5.99;41.80
47742;BME280;33504;52.066;6.096;2023-05-03T05:05:18;102926.65;;;5.73;41.55
47742;BME280;33504;52.066;6.096;2023-05-03T05:07:45;102933.06;;;5.98;41.49
47742;BME280;33504;52.066;6.096;2023-05-03T05:10:12;102933.82;;;5.76;41.68
47742;BME280;33504;52.066;6.096;2023-05-03T05:12:39;102934.07;;;6.11;41.60
47742;BME280;33504;52.066;6.096;2023-05-03T05:15:07;102933.97;;;6.19;41.68
47742;BME280;33504;52.066;6.096;2023-05-03T05:17:34;102939.38;;;6.29;41.64
47742;BME280;33504;52.066;6.096;2023-05-03T05:20:01;102943.85;;;6.15;42.06
47742;BME280;33504;52.066;6.096;2023-05-03T05:22:28;102946.32;;;6.31;42.03
47742;BME280;33504;52.066;6.096;2023-05-03T05:24:54;102950.25;;;6.43;42.14
47742;BME280;33504;52.066;6.096;2023-05-03T05:27:21;102951.05;;;6.56;42.19
47742;BME280;33504;52.066;6.096;2023-05-03T05:29:49;102954.03;;;6.69;42.17
47742;BME280;33504;52.066;6.096;2023-05-03T05:32:16;102953.29;;;6.76;41.99
47742;BME280;33504;52.066;6.096;2023-05-03T05:34:43;102955.90;;;6.67;42.05
47742;BME280;33504;52.066;6.096;2023-05-03T05:37:09;102956.66;;;6.99;42.07
47742;BME280;33504;52.066;6.096;2023-05-03T05:39:37;102956.44;;;6.92;41.98
47742;BME280;33504;52.066;6.096;2023-05-03T05:42:04;102957.46;;;7.24;41.69
47742;BME280;33504;52.066;6.096;2023-05-03T05:44:31;102956.33;;;7.17;41.61
47742;BME280;33504;52.066;6.096;2023-05-03T05:46:58;102958.13;;;7.49;41.36
47742;BME280;33504;52.066;6.096;2023-05-03T05:49:25;102958.06;;;7.19;41.45
47742;BME280;33504;52.066;6.096;2023-05-03T05:51:53;102957.70;;;7.54;41.43
47742;BME280;33504;52.066;6.096;2023-05-03T05:54:20;102960.61;;;7.43;41.30
47742;BME280;33504;52.066;6.096;2023-05-03T05:56:46;102961.78;;;7.79;41.42
47742;BME280;33504;52.066;6.096;2023-05-03T05:59:13;102965.07;;;7.63;41.59
47742;BME280;33504;52.066;6.096;2023-05-03T06:01:40;102966.70;;;7.77;41.45
47742;BME280;33504;52.066;6.096;2023-05-03T06:04:07;102966.10;;;7.82;41.52
47742;BME280;33504;52.066;6.096;2023-05-03T06:06:34;102965.43;;;7.98;41.53
47742;BME280;33504;52.066;6.096;2023-05-03T06:09:02;102965.60;;;8.11;41.48
47742;BME280;33504;52.066;6.096;2023-05-03T06:11:29;102963.45;;;8.26;41.44
47742;BME280;33504;52.066;6.096;2023-05-03T06:13:56;102960.65;;;7.91;41.46
47742;BME280;33504;52.066;6.096;2023-05-03T06:16:23;102960.16;;;8.57;41.43
47742;BME280;33504;52.066;6.096;2023-05-03T06:18:51;102959.19;;;8.21;41.42
47742;BME280;33504;52.066;6.096;2023-05-03T06:21:18;102962.54;;;8.51;41.50
47742;BME280;33504;52.066;6.096;2023-05-03T06:23:45;102957.73;;;8.63;41.64
47742;BME280;33504;52.066;6.096;2023-05-03T06:26:12;102955.56;;;8.83;41.42
47742;BME280;33504;52.066;6.096;2023-05-03T06:28:38;102957.54;;;9.21;41.25
47742;BME280;33504;52.066;6.096;2023-05-03T06:31:05;102956.74;;;8.83;41.08
47742;BME280;33504;52.066;6.096;2023-05-03T06:33:33;102955.12;;;9.26;41.19
47742;BME280;33504;52.066;6.096;2023-05-03T06:36:00;102955.50;;;9.24;41.29
47742;BME280;33504;52.066;6.096;2023-05-03T06:38:27;102956.43;;;9.39;40.97
47742;BME280;33504;52.066;6.096;2023-05-03T06:40:55;102957.10;;;8.97;40.93
47742;BME280;33504;52.066;6.096;2023-05-03T06:43:22;102953.93;;;9.08;40.46
47742;BME280;33504;52.066;6.096;2023-05-03T06:45:50;102951.91;;;9.65;39.37
47742;BME280;33504;52.066;6.096;2023-05-03T06:48:18;102947.09;;;9.60;39.23
47742;BME280;33504;52.066;6.096;2023-05-03T06:50:45;102949.87;;;10.18;38.66
47742;BME280;33504;52.066;6.096;2023-05-03T06:53:13;102944.74;;;10.25;38.00
47742;BME280;33504;52.066;6.096;2023-05-03T06:55:42;102939.70;;;10.50;37.65
47742;BME280;33504;52.066;6.096;2023-05-03T06:58:09;102942.76;;;10.59;37.62
47742;BME280;33504;52.066;6.096;2023-05-03T07:00:36;102941.44;;;10.66;37.38
47742;BME280;33504;52.066;6.096;2023-05-03T07:03:04;102939.78;;;9.71;37.65
47742;BME280;33504;52.066;6.096;2023-05-03T07:05:30;102944.97;;;10.44;37.16
47742;BME280;33504;52.066;6.096;2023-05-03T07:07:57;102943.35;;;10.63;37.28
47742;BME280;33504;52.066;6.096;2023-05-03T07:10:24;102938.93;;;10.75;36.51
47742;BME280;33504;52.066;6.096;2023-05-03T07:12:51;102934.78;;;11.29;35.84
47742;BME280;33504;52.066;6.096;2023-05-03T07:15:18;102935.98;;;11.51;35.15
47742;BME280;33504;52.066;6.096;2023-05-03T07:17:45;102931.84;;;11.34;35.21
47742;BME280;33504;52.066;6.096;2023-05-03T07:20:11;102934.81;;;11.63;35.44
47742;BME280;33504;52.066;6.096;2023-05-03T07:22:38;102930.87;;;11.95;34.89
47742;BME280;33504;52.066;6.096;2023-05-03T07:25:05;102933.83;;;11.55;34.92
47742;BME280;33504;52.066;6.096;2023-05-03T07:27:33;102934.30;;;12.13;34.12
47742;BME280;33504;52.066;6.096;2023-05-03T07:30:00;102936.04;;;12.20;33.71
47742;BME280;33504;52.066;6.096;2023-05-03T07:32:27;102933.06;;;12.64;33.74
47742;BME280;33504;52.066;6.096;2023-05-03T07:34:54;102933.25;;;12.51;33.15
47742;BME280;33504;52.066;6.096;2023-05-03T07:37:22;102928.59;;;12.74;32.30
47742;BME280;33504;52.066;6.096;2023-05-03T07:39:49;102923.01;;;13.18;32.19
47742;BME280;33504;52.066;6.096;2023-05-03T07:42:15;102916.24;;;12.98;31.46
47742;BME280;33504;52.066;6.096;2023-05-03T07:44:42;102911.58;;;12.56;31.81
47742;BME280;33504;52.066;6.096;2023-05-03T07:47:09;102910.68;;;13.22;31.17
47742;BME280;33504;52.066;6.096;2023-05-03T07:49:36;102907.01;;;13.40;30.87
47742;BME280;33504;52.066;6.096;2023-05-03T07:52:04;102901.22;;;13.09;30.39
47742;BME280;33504;52.066;6.096;2023-05-03T07:54:31;102895.39;;;13.42;30.43
47742;BME280;33504;52.066;6.096;2023-05-03T07:56:58;102894.07;;;13.62;30.35
47742;BME280;33504;52.066;6.096;2023-05-03T07:59:24;102890.07;;;13.54;29.48
47742;BME280;33504;52.066;6.096;2023-05-03T08:01:51;102886.56;;;14.00;29.69
47742;BME280;33504;52.066;6.096;2023-05-03T08:04:18;102885.76;;;13.81;30.10
47742;BME280;33504;52.066;6.096;2023-05-03T08:06:45;102882.85;;;13.98;29.37
47742;BME280;33504;52.066;6.096;2023-05-03T08:09:12;102881.16;;;14.14;29.72
47742;BME280;33504;52.066;6.096;2023-05-03T08:11:39;102875.80;;;13.65;29.80
47742;BME280;33504;52.066;6.096;2023-05-03T08:14:06;102871.81;;;13.85;29.95
47742;BME280;33504;52.066;6.096;2023-05-03T08:16:32;102875.76;;;13.52;30.28
47742;BME280;33504;52.066;6.096;2023-05-03T08:18:59;102867.69;;;14.19;30.02
47742;BME280;33504;52.066;6.096;2023-05-03T08:21:26;102873.89;;;14.23;29.70
47742;BME280;33504;52.066;6.096;2023-05-03T08:23:53;102873.22;;;14.40;29.20
47742;BME280;33504;52.066;6.096;2023-05-03T08:26:20;102871.56;;;14.70;29.00
47742;BME280;33504;52.066;6.096;2023-05-03T08:28:48;102866.16;;;14.55;28.41
47742;BME280;33504;52.066;6.096;2023-05-03T08:31:15;102872.22;;;15.04;28.44
47742;BME280;33504;52.066;6.096;2023-05-03T08:33:41;102873.36;;;15.10;28.31
47742;BME280;33504;52.066;6.096;2023-05-03T08:36:08;102872.92;;;15.23;27.80
47742;BME280;33504;52.066;6.096;2023-05-03T08:38:35;102881.41;;;15.24;27.99
47742;BME280;33504;52.066;6.096;2023-05-03T08:41:18;102879.91;;;15.44;27.64
47742;BME280;33504;52.066;6.096;2023-05-03T08:43:51;102882.50;;;15.94;27.30
47742;BME280;33504;52.066;6.096;2023-05-03T08:46:19;102880.82;;;15.89;26.77
47742;BME280;33504;52.066;6.096;2023-05-03T08:48:47;102875.70;;;15.74;27.56
47742;BME280;33504;52.066;6.096;2023-05-03T08:51:16;102876.27;;;16.32;27.20
47742;BME280;33504;52.066;6.096;2023-05-03T08:53:43;102869.43;;;16.51;26.69
47742;BME280;33504;52.066;6.096;2023-05-03T08:56:12;102872.21;;;16.92;25.83
47742;BME280;33504;52.066;6.096;2023-05-03T08:58:42;102867.83;;;16.93;26.16
47742;BME280;33504;52.066;6.096;2023-05-03T09:01:08;102868.45;;;17.38;25.87
47742;BME280;33504;52.066;6.096;2023-05-03T09:03:35;102865.49;;;17.09;25.37
47742;BME280;33504;52.066;6.096;2023-05-03T09:06:18;102863.26;;;17.28;25.10
47742;BME280;33504;52.066;6.096;2023-05-03T09:08:45;102857.97;;;17.23;25.32
47742;BME280;33504;52.066;6.096;2023-05-03T09:11:19;102853.65;;;17.00;24.71
47742;BME280;33504;52.066;6.096;2023-05-03T09:13:46;102854.11;;;17.05;24.77
47742;BME280;33504;52.066;6.096;2023-05-03T09:16:21;102848.09;;;17.23;25.18
47742;BME280;33504;52.066;6.096;2023-05-03T09:18:57;102846.93;;;17.46;25.10
47742;BME280;33504;52.066;6.096;2023-05-03T09:21:24;102856.97;;;17.17;25.65
47742;BME280;33504;52.066;6.096;2023-05-03T09:23:51;102861.82;;;17.58;24.41
47742;BME280;33504;52.066;6.096;2023-05-03T09:26:29;102867.82;;;17.87;24.68
47742;BME280;33504;52.066;6.096;2023-05-03T09:28:57;102868.27;;;17.85;24.81
47742;BME280;33504;52.066;6.096;2023-05-03T09:31:25;102865.10;;;17.45;24.79
47742;BME280;33504;52.066;6.096;2023-05-03T09:33:52;102857.75;;;17.79;24.89
47742;BME280;33504;52.066;6.096;2023-05-03T09:36:18;102865.11;;;18.04;25.30
47742;BME280;33504;52.066;6.096;2023-05-03T09:38:45;102866.48;;;17.41;24.59
47742;BME280;33504;52.066;6.096;2023-05-03T09:41:13;102861.07;;;18.28;23.87
47742;BME280;33504;52.066;6.096;2023-05-03T09:43:48;102861.53;;;18.08;24.03
47742;BME280;33504;52.066;6.096;2023-05-03T09:46:15;102866.97;;;18.17;24.46
47742;BME280;33504;52.066;6.096;2023-05-03T09:48:43;102864.74;;;18.32;23.39
47742;BME280;33504;52.066;6.096;2023-05-03T09:51:11;102856.63;;;18.18;23.86
47742;BME280;33504;52.066;6.096;2023-05-03T09:53:39;102853.78;;;18.57;24.16
47742;BME280;33504;52.066;6.096;2023-05-03T09:56:09;102859.70;;;18.91;24.01
47742;BME280;33504;52.066;6.096;2023-05-03T09:58:36;102863.66;;;18.59;24.09
47742;BME280;33504;52.066;6.096;2023-05-03T10:01:04;102861.46;;;18.46;22.86
47742;BME280;33504;52.066;6.096;2023-05-03T10:03:35;102851.23;;;19.01;23.06
47742;BME280;33504;52.066;6.096;2023-05-03T10:06:07;102842.47;;;18.38;22.84
47742;BME280;33504;52.066;6.096;2023-05-03T10:08:40;102839.84;;;18.75;23.64
47742;BME280;33504;52.066;6.096;2023-05-03T10:11:10;102841.51;;;18.91;22.97
47742;BME280;33504;52.066;6.096;2023-05-03T10:13:38;102845.71;;;19.34;22.19
47742;BME280;33504;52.066;6.096;2023-05-03T10:16:07;102847.21;;;19.17;22.16
47742;BME280;33504;52.066;6.096;2023-05-03T10:18:42;102844.43;;;19.36;22.59
47742;BME280;33504;52.066;6.096;2023-05-03T10:21:15;102842.29;;;20.23;21.79
47742;BME280;33504;52.066;6.096;2023-05-03T10:24:18;102852.94;;;21.18;21.54
47742;BME280;33504;52.066;6.096;2023-05-03T10:26:47;102847.45;;;20.54;21.01
47742;BME280;33504;52.066;6.096;2023-05-03T10:29:50;102849.94;;;21.19;20.97
47742;BME280;33504;52.066;6.096;2023-05-03T10:32:34;102844.52;;;20.46;20.10
47742;BME280;33504;52.066;6.096;2023-05-03T10:35:05;102837.00;;;20.74;20.03
47742;BME280;33504;52.066;6.096;2023-05-03T10:37:34;102840.71;;;20.21;20.49
47742;BME280;33504;52.066;6.096;2023-05-03T10:40:10;102842.67;;;20.79;21.13
47742;BME280;33504;52.066;6.096;2023-05-03T10:42:37;102836.03;;;20.41;21.08
47742;BME280;33504;52.066;6.096;2023-05-03T10:45:07;102830.19;;;20.71;20.82
47742;BME280;33504;52.066;6.096;2023-05-03T10:47:34;102832.87;;;20.36;21.12
47742;BME280;33504;52.066;6.096;2023-05-03T10:50:30;102832.66;;;20.69;20.31
47742;BME280;33504;52.066;6.096;2023-05-03T10:52:58;102832.60;;;20.07;20.75
47742;BME280;33504;52.066;6.096;2023-05-03T10:55:25;102828.62;;;20.35;20.33
47742;BME280;33504;52.066;6.096;2023-05-03T10:57:53;102824.82;;;20.45;20.26
47742;BME280;33504;52.066;6.096;2023-05-03T11:00:27;102818.76;;;20.82;19.93
47742;BME280;33504;52.066;6.096;2023-05-03T11:03:07;102815.06;;;20.64;19.79
47742;BME280;33504;52.066;6.096;2023-05-03T11:05:36;102814.56;;;21.16;20.29
47742;BME280;33504;52.066;6.096;2023-05-03T11:08:08;102818.46;;;21.52;20.50
47742;BME280;33504;52.066;6.096;2023-05-03T11:10:35;102812.70;;;21.81;20.11
47742;BME280;33504;52.066;6.096;2023-05-03T11:13:02;102813.48;;;21.39;19.42
47742;BME280;33504;52.066;6.096;2023-05-03T11:15:29;102811.28;;;21.20;20.24
47742;BME280;33504;52.066;6.096;2023-05-03T11:17:56;102810.29;;;21.15;20.03
47742;BME280;33504;52.066;6.096;2023-05-03T11:20:28;102809.65;;;21.30;20.17
47742;BME280;33504;52.066;6.096;2023-05-03T11:22:56;102800.24;;;21.67;19.46
47742;BME280;33504;52.066;6.096;2023-05-03T11:25:23;102797.61;;;20.95;19.96
47742;BME280;33504;52.066;6.096;2023-05-03T11:27:51;102792.36;;;21.08;19.95
47742;BME280;33504;52.066;6.096;2023-05-03T11:30:17;102798.61;;;21.60;19.77
47742;BME280;33504;52.066;6.096;2023-05-03T11:32:44;102792.55;;;21.11;20.39
47742;BME280;33504;52.066;6.096;2023-05-03T11:35:12;102793.04;;;21.43;20.05
47742;BME280;33504;52.066;6.096;2023-05-03T11:37:40;102782.33;;;21.79;19.48
47742;BME280;33504;52.066;6.096;2023-05-03T11:40:13;102777.39;;;22.27;19.37
47742;BME280;33504;52.066;6.096;2023-05-03T11:42:50;102778.26;;;22.71;18.81
47742;BME280;33504;52.066;6.096;2023-05-03T11:45:17;102781.79;;;22.01;18.56
47742;BME280;33504;52.066;6.096;2023-05-03T11:47:44;102774.47;;;22.45;18.50
47742;BME280;33504;52.066;6.096;2023-05-03T11:50:12;102772.22;;;22.66;19.29
47742;BME280;33504;52.066;6.096;2023-05-03T11:52:40;102768.15;;;21.91;19.28
47742;BME280;33504;52.066;6.096;2023-05-03T11:55:08;102761.78;;;22.26;19.05
47742;BME280;33504;52.066;6.096;2023-05-03T11:57:35;102760.47;;;21.98;18.91
47742;BME280;33504;52.066;6.096;2023-05-03T12:00:10;102756.98;;;21.92;18.73
47742;BME280;33504;52.066;6.096;2023-05-03T12:02:38;102756.71;;;21.77;19.64
47742;BME280;33504;52.066;6.096;2023-05-03T12:05:06;102756.67;;;21.71;19.49
47742;BME280;33504;52.066;6.096;2023-05-03T12:07:35;102757.01;;;22.09;19.37
47742;BME280;33504;52.066;6.096;2023-05-03T12:10:12;102754.84;;;22.22;18.81
47742;BME280;33504;52.066;6.096;2023-05-03T12:12:39;102752.56;;;23.01;19.05
47742;BME280;33504;52.066;6.096;2023-05-03T12:15:07;102754.72;;;22.07;18.92
47742;BME280;33504;52.066;6.096;2023-05-03T12:17:35;102750.97;;;22.35;19.35
47742;BME280;33504;52.066;6.096;2023-05-03T12:20:19;102743.79;;;22.43;18.46
47742;BME280;33504;52.066;6.096;2023-05-03T12:22:48;102745.68;;;22.66;18.58
47742;BME280;33504;52.066;6.096;2023-05-03T12:25:15;102736.62;;;23.31;18.64
47742;BME280;33504;52.066;6.096;2023-05-03T12:27:43;102734.33;;;23.37;18.87
47742;BME280;33504;52.066;6.096;2023-05-03T12:30:11;102732.61;;;23.10;18.76
47742;BME280;33504;52.066;6.096;2023-05-03T12:32:39;102727.59;;;23.50;18.77
47742;BME280;33504;52.066;6.096;2023-05-03T12:35:07;102721.18;;;24.10;18.34
47742;BME280;33504;52.066;6.096;2023-05-03T12:37:35;102714.35;;;24.38;17.62
47742;BME280;33504;52.066;6.096;2023-05-03T12:40:03;102711.32;;;23.67;18.01
47742;BME280;33504;52.066;6.096;2023-05-03T12:42:30;102709.53;;;23.32;18.14
47742;BME280;33504;52.066;6.096;2023-05-03T12:44:58;102709.38;;;24.50;17.66
47742;BME280;33504;52.066;6.096;2023-05-03T12:47:25;102701.30;;;24.12;18.02
47742;BME280;33504;52.066;6.096;2023-05-03T12:49:53;102703.80;;;24.08;17.95
47742;BME280;33504;52.066;6.096;2023-05-03T12:52:20;102701.36;;;24.60;18.01
47742;BME280;33504;52.066;6.096;2023-05-03T12:54:47;102700.12;;;24.74;17.53
47742;BME280;33504;52.066;6.096;2023-05-03T12:57:15;102695.92;;;24.72;17.41
47742;BME280;33504;52.066;6.096;2023-05-03T12:59:42;102698.30;;;24.04;18.15
47742;BME280;33504;52.066;6.096;2023-05-03T13:02:10;102692.32;;;24.00;17.87